Time;durP1;ratioP1;P1;durP2;ratioP2;P2;SDS_P1;SDS_P2;PMS_P1;PMS_P2;Temp;Humidity;BMP_temperature;BMP_pressure;BME280_temperature;BME280_humidity;BME280_pressure;Samples;Min_cycle;Max_cycle;Signal;HPM_P1;HPM_P2
2021/08/26 00:06:48;;;;;;;0.25;0.25;;;;;;;21.52;45.35;99669.63;6242933;23;20138;-63
2021/08/26 00:09:17;;;;;;;0.10;0.10;;;;;;;21.54;45.67;99689.72;6242667;23;20020;-64
2021/08/26 00:11:47;;;;;;;0.10;0.10;;;;;;;21.52;45.94;99675.78;6242571;23;20463;-63
2021/08/26 00:14:17;;;;;;;0.47;0.35;;;;;;;21.52;45.71;99683.75;6242795;23;20091;-63
2021/08/26 00:16:44;;;;;;;0.10;0.10;;;;;;;21.52;45.82;99669.63;6242655;23;20491;-64
2021/08/26 00:19:13;;;;;;;0.13;0.13;;;;;;;21.52;45.59;99673.13;6242619;23;20035;-63
2021/08/26 00:21:39;;;;;;;0.10;0.10;;;;;;;21.41;45.88;99649.47;6242312;23;20020;-64
2021/08/26 00:24:06;;;;;;;0.10;0.10;;;;;;;21.42;46.16;99652.97;6242410;23;20016;-64
2021/08/26 00:26:32;;;;;;;0.38;0.38;;;;;;;21.46;46.10;99665.78;6215763;23;20052;-65
2021/08/26 00:29:01;;;;;;;0.10;0.10;;;;;;;21.45;45.95;99655.31;6241926;23;20426;-63
2021/08/26 00:31:27;;;;;;;0.10;0.10;;;;;;;21.44;46.18;99656.28;6242186;23;20019;-65
2021/08/26 00:33:53;;;;;;;0.10;0.10;;;;;;;21.43;46.32;99667.91;6242554;23;20135;-63
2021/08/26 00:36:20;;;;;;;0.20;0.20;;;;;;;21.38;46.35;99659.56;6242093;23;20382;-63
2021/08/26 00:38:45;;;;;;;0.25;0.25;;;;;;;21.37;46.16;99664.06;6242007;23;20623;-63
2021/08/26 00:41:12;;;;;;;0.10;0.10;;;;;;;21.36;46.57;99667.72;6242363;23;20012;-63
2021/08/26 00:43:38;;;;;;;0.10;0.10;;;;;;;21.38;46.48;99671.03;6215803;23;20024;-64
2021/08/26 00:46:04;;;;;;;0.40;0.40;;;;;;;21.39;46.35;99669.22;6242376;23;20020;-64
2021/08/26 00:48:30;;;;;;;0.10;0.10;;;;;;;21.39;46.64;99662.09;6214557;23;20020;-64
2021/08/26 00:50:57;;;;;;;0.20;0.20;;;;;;;21.37;46.65;99656.09;6242431;23;20012;-64
2021/08/26 00:53:23;;;;;;;0.10;0.10;;;;;;;21.28;46.35;99649.06;6241895;23;20024;-64
2021/08/26 00:55:51;;;;;;;0.10;0.10;;;;;;;21.38;46.51;99664.88;6242343;23;20091;-64
2021/08/26 00:58:18;;;;;;;0.10;0.10;;;;;;;21.37;46.45;99664.06;6215635;23;20067;-65
2021/08/26 01:00:50;;;;;;;0.10;0.10;;;;;;;21.35;46.50;99658.06;6190378;23;20032;-64
2021/08/26 01:03:16;;;;;;;0.10;0.10;;;;;;;21.33;46.64;99657.41;6242450;23;20089;-64
2021/08/26 01:05:55;;;;;;;0.10;0.10;;;;;;;21.32;46.97;99658.38;6241943;23;20066;-64
2021/08/26 01:08:46;;;;;;;0.10;0.10;;;;;;;21.26;46.93;99651.06;6215172;23;20479;-64
2021/08/26 01:11:12;;;;;;;0.15;0.15;;;;;;;21.26;46.94;99649.25;6220995;23;20016;-65
2021/08/26 01:13:38;;;;;;;0.10;0.10;;;;;;;21.27;47.13;99653.53;6190640;23;20027;-65
2021/08/26 01:16:12;;;;;;;0.10;0.10;;;;;;;21.28;46.98;99659.69;6242235;23;20404;-64
2021/08/26 01:18:43;;;;;;;0.10;0.10;;;;;;;21.24;47.09;99650.38;6242066;23;20016;-65
2021/08/26 01:21:13;;;;;;;0.30;0.30;;;;;;;21.27;47.18;99650.03;6242145;23;20069;-64
2021/08/26 01:23:42;;;;;;;0.20;0.20;;;;;;;21.26;47.12;99643.09;6241912;23;20016;-65
2021/08/26 01:26:08;;;;;;;0.10;0.10;;;;;;;21.24;47.20;99626.47;6215327;23;20091;-64
2021/08/26 01:28:36;;;;;;;0.10;0.10;;;;;;;21.20;47.52;99635.75;6241910;23;20048;-65
2021/08/26 01:31:02;;;;;;;0.45;0.45;;;;;;;21.17;47.42;99630.75;6215635;23;20018;-64
2021/08/26 01:33:28;;;;;;;0.10;0.10;;;;;;;21.17;47.43;99641.38;6215216;23;20024;-65
2021/08/26 01:36:14;;;;;;;0.30;0.30;;;;;;;21.01;47.70;99615.50;6242053;23;20016;-64
2021/08/26 01:39:05;;;;;;;0.10;0.10;;;;;;;21.12;47.67;99631.22;6242139;23;20054;-64
2021/08/26 01:41:51;;;;;;;0.10;0.10;;;;;;;21.14;47.56;99636.34;6241883;23;20031;-64
2021/08/26 01:44:37;;;;;;;0.10;0.10;;;;;;;21.15;47.49;99630.91;6241366;23;20415;-64
2021/08/26 01:47:23;;;;;;;0.10;0.10;;;;;;;21.13;47.73;99619.63;6241995;23;20055;-65
2021/08/26 01:50:09;;;;;;;0.10;0.10;;;;;;;21.03;48.12;99618.03;6241912;23;20460;-64
2021/08/26 01:52:55;;;;;;;0.10;0.10;;;;;;;21.01;47.97;99618.16;6241691;23;20465;-65
2021/08/26 01:55:41;;;;;;;0.20;0.20;;;;;;;21.01;48.03;99626.13;6241682;23;20020;-64
2021/08/26 01:58:27;;;;;;;0.10;0.10;;;;;;;21.03;47.93;99624.16;6242135;23;20058;-64
2021/08/26 02:01:13;;;;;;;0.10;0.10;;;;;;;21.05;47.99;99621.34;6243705;23;20023;-64
2021/08/26 02:03:58;;;;;;;0.17;0.17;;;;;;;21.02;48.10;99616.34;6244204;23;20453;-65
2021/08/26 02:06:44;;;;;;;0.10;0.10;;;;;;;20.99;48.26;99612.19;6243890;23;20452;-64
2021/08/26 02:09:30;;;;;;;0.10;0.10;;;;;;;20.95;48.54;99604.69;6243237;23;20436;-64
2021/08/26 02:12:16;;;;;;;0.10;0.10;;;;;;;20.95;48.15;99594.91;6243957;23;20121;-64
2021/08/26 02:15:02;;;;;;;0.20;0.20;;;;;;;21.01;48.20;99609.38;6243858;23;20161;-64
2021/08/26 02:17:47;;;;;;;0.10;0.10;;;;;;;20.96;48.02;99603.69;6243696;23;20020;-65
2021/08/26 02:20:33;;;;;;;0.10;0.10;;;;;;;20.99;48.28;99616.66;6243403;23;20012;-65
2021/08/26 02:23:19;;;;;;;0.10;0.10;;;;;;;20.95;47.88;99610.00;6243933;23;20463;-63
2021/08/26 02:26:05;;;;;;;0.10;0.10;;;;;;;20.99;48.53;99608.69;6243547;22;20050;-64
2021/08/26 02:28:51;;;;;;;0.10;0.10;;;;;;;20.96;48.32;99617.81;6221039;23;20020;-65
2021/08/26 02:31:37;;;;;;;0.30;0.30;;;;;;;20.99;48.31;99619.31;6221107;23;20020;-65
2021/08/26 02:34:23;;;;;;;0.10;0.10;;;;;;;20.98;48.30;99621.13;6243673;23;20024;-64
2021/08/26 02:37:08;;;;;;;0.10;0.10;;;;;;;21.01;48.19;99627.94;6243865;23;20024;-64
2021/08/26 02:39:54;;;;;;;0.20;0.20;;;;;;;20.98;48.00;99633.56;6243374;23;20456;-64
2021/08/26 02:42:40;;;;;;;0.10;0.10;;;;;;;21.03;48.28;99634.78;6243439;23;20388;-63
2021/08/26 02:45:26;;;;;;;0.10;0.10;;;;;;;21.03;48.06;99640.09;6243871;23;20019;-66
2021/08/26 02:48:11;;;;;;;0.20;0.20;;;;;;;21.06;48.12;99652.22;6243238;23;20391;-64
2021/08/26 02:50:57;;;;;;;0.10;0.10;;;;;;;21.09;47.90;99641.28;6243457;23;20099;-64
2021/08/26 02:53:43;;;;;;;0.10;0.10;;;;;;;21.12;47.70;99643.66;6242701;23;20470;-64
2021/08/26 02:56:29;;;;;;;0.10;0.10;;;;;;;21.16;47.89;99648.50;6243436;23;20077;-64
2021/08/26 02:59:14;;;;;;;0.10;0.10;;;;;;;21.21;47.62;99648.03;6243547;23;20112;-64
2021/08/26 03:02:01;;;;;;;0.10;0.10;;;;;;;21.19;47.39;99634.09;6243468;23;20074;-63
2021/08/26 03:04:46;;;;;;;0.10;0.10;;;;;;;21.24;47.51;99642.41;6243178;23;20020;-64
2021/08/26 03:07:32;;;;;;;0.10;0.10;;;;;;;21.27;47.36;99647.38;6243355;23;20090;-64
2021/08/26 03:10:18;;;;;;;0.10;0.10;;;;;;;21.30;47.35;99639.13;6243354;23;20032;-64
2021/08/26 03:13:04;;;;;;;0.10;0.10;;;;;;;21.33;47.15;99637.97;6243265;23;20030;-64
2021/08/26 03:15:50;;;;;;;0.13;0.13;;;;;;;21.34;47.11;99637.81;6220783;23;20020;-64
2021/08/26 03:18:36;;;;;;;0.10;0.10;;;;;;;21.32;47.09;99646.94;6243042;23;20028;-63
2021/08/26 03:21:21;;;;;;;0.10;0.10;;;;;;;21.34;47.15;99634.31;6242864;23;20547;-64
2021/08/26 03:24:08;;;;;;;0.10;0.10;;;;;;;21.31;47.11;99632.81;6243348;23;20024;-64
2021/08/26 03:26:53;;;;;;;0.10;0.10;;;;;;;21.29;47.27;99635.66;6243310;22;20078;-64
2021/08/26 03:29:39;;;;;;;0.10;0.10;;;;;;;21.31;47.42;99646.09;6242684;23;20024;-64
2021/08/26 03:32:25;;;;;;;0.10;0.10;;;;;;;21.26;47.42;99614.72;6243161;23;20020;-64
2021/08/26 03:35:11;;;;;;;0.10;0.10;;;;;;;21.26;47.32;99651.91;6243189;23;20620;-64
2021/08/26 03:37:56;;;;;;;0.10;0.10;;;;;;;21.25;47.33;99622.81;6242795;23;20028;-64
2021/08/26 03:40:42;;;;;;;0.10;0.10;;;;;;;21.23;47.63;99646.91;6242598;23;20081;-65
2021/08/26 03:43:28;;;;;;;0.15;0.15;;;;;;;21.23;47.32;99646.06;6242826;23;20391;-65
2021/08/26 03:46:14;;;;;;;0.10;0.10;;;;;;;21.26;47.19;99656.38;6242947;23;20067;-65
2021/08/26 03:49:00;;;;;;;0.10;0.10;;;;;;;21.31;47.17;99648.75;6242730;23;20034;-65
2021/08/26 03:51:46;;;;;;;0.20;0.20;;;;;;;21.32;47.15;99655.72;6242362;23;20016;-65
2021/08/26 03:54:32;;;;;;;0.10;0.10;;;;;;;21.37;46.90;99655.28;6242918;23;20452;-65
2021/08/26 03:57:18;;;;;;;0.10;0.10;;;;;;;21.38;47.00;99644.47;6199870;23;20020;-65
2021/08/26 04:00:04;;;;;;;0.10;0.10;;;;;;;21.43;47.19;99652.81;6242944;23;20166;-65
2021/08/26 04:02:50;;;;;;;0.10;0.10;;;;;;;21.42;46.85;99632.56;6220630;23;20024;-64
2021/08/26 04:05:36;;;;;;;0.10;0.10;;;;;;;21.49;46.70;99662.81;6243091;23;20052;-65
2021/08/26 04:08:22;;;;;;;0.10;0.10;;;;;;;21.54;46.61;99659.66;6220969;23;20058;-64
2021/08/26 04:11:08;;;;;;;0.10;0.10;;;;;;;21.62;46.34;99660.56;6220527;23;20309;-64
2021/08/26 04:13:54;;;;;;;0.22;0.22;;;;;;;21.70;46.34;99655.25;6242619;23;20099;-64
2021/08/26 04:16:40;;;;;;;0.10;0.10;;;;;;;21.82;45.86;99663.78;6242052;23;20448;-64
2021/08/26 04:19:26;;;;;;;0.20;0.20;;;;;;;21.94;46.01;99659.03;6242298;23;20528;-65
2021/08/26 04:22:11;;;;;;;0.20;0.20;;;;;;;22.05;45.44;99661.41;6242622;23;20087;-64
2021/08/26 04:24:57;;;;;;;0.10;0.10;;;;;;;22.14;45.16;99663.09;6242021;23;20475;-65
2021/08/26 04:27:43;;;;;;;0.10;0.10;;;;;;;22.24;44.99;99664.63;6242049;22;20329;-65
2021/08/26 04:30:29;;;;;;;0.10;0.10;;;;;;;22.32;44.52;99658.47;6242409;23;20020;-64
2021/08/26 04:33:15;;;;;;;0.10;0.10;;;;;;;22.44;44.43;99651.84;6242625;23;20043;-64
2021/08/26 04:36:01;;;;;;;0.10;0.10;;;;;;;22.50;44.51;99656.50;6242137;23;20023;-64
2021/08/26 04:38:47;;;;;;;0.20;0.20;;;;;;;22.55;44.22;99651.50;6241950;23;20391;-64
2021/08/26 04:41:33;;;;;;;0.10;0.10;;;;;;;22.62;44.29;99657.84;6220128;23;20150;-65
2021/08/26 04:44:18;;;;;;;0.10;0.10;;;;;;;22.68;43.70;99661.69;6242573;23;20024;-65
2021/08/26 04:47:04;;;;;;;0.10;0.10;;;;;;;22.78;43.49;99657.88;6220137;23;20055;-65
2021/08/26 04:49:50;;;;;;;0.40;0.40;;;;;;;22.90;43.34;99665.53;6219712;23;20095;-64
2021/08/26 04:52:36;;;;;;;0.10;0.10;;;;;;;22.97;43.01;99656.69;6242286;23;20085;-65
2021/08/26 04:55:22;;;;;;;0.10;0.10;;;;;;;23.01;42.88;99652.69;6242215;23;20051;-65
2021/08/26 04:58:08;;;;;;;0.10;0.10;;;;;;;23.11;42.74;99665.81;6242392;23;20023;-64
2021/08/26 05:00:54;;;;;;;0.10;0.10;;;;;;;23.19;42.43;99652.50;6219640;23;20023;-65
2021/08/26 05:03:41;;;;;;;0.20;0.20;;;;;;;23.46;41.93;99635.31;6219948;23;20091;-66
2021/08/26 05:06:26;;;;;;;0.10;0.10;;;;;;;23.56;41.90;99655.41;6242255;23;20043;-65
2021/08/26 05:09:12;;;;;;;0.10;0.10;;;;;;;23.63;41.96;99664.41;6242164;23;20047;-66
2021/08/26 05:12:00;;;;;;;0.10;0.10;;;;;;;23.78;41.61;99667.19;6241857;23;20028;-65
2021/08/26 05:14:46;;;;;;;0.10;0.10;;;;;;;23.90;41.10;99664.97;6219600;23;20343;-66
2021/08/26 05:17:32;;;;;;;0.10;0.10;;;;;;;23.81;41.17;99666.84;6242463;23;20127;-62
2021/08/26 05:20:18;;;;;;;0.10;0.10;;;;;;;23.71;41.45;99672.38;6242106;23;20024;-63
2021/08/26 05:23:04;;;;;;;0.10;0.10;;;;;;;23.57;41.79;99664.25;6242245;23;20024;-62
2021/08/26 05:25:50;;;;;;;0.10;0.10;;;;;;;23.44;42.17;99670.13;6241614;22;20023;-63
2021/08/26 05:28:35;;;;;;;0.20;0.20;;;;;;;23.51;42.08;99665.78;6242171;23;20111;-66
2021/08/26 05:31:21;;;;;;;0.20;0.20;;;;;;;23.61;41.78;99661.09;6242307;23;20094;-64
2021/08/26 05:34:07;;;;;;;0.20;0.20;;;;;;;23.65;41.85;99661.56;6241908;23;20024;-65
2021/08/26 05:36:54;;;;;;;0.50;0.50;;;;;;;23.68;41.64;99670.06;6241938;23;20360;-67
2021/08/26 05:39:40;;;;;;;0.10;0.10;;;;;;;23.60;41.72;99690.56;6212687;23;20372;-67
2021/08/26 05:42:26;;;;;;;0.10;0.10;;;;;;;23.48;42.07;99676.78;6241951;23;20486;-64
2021/08/26 05:45:11;;;;;;;0.20;0.20;;;;;;;23.29;42.46;99677.13;6242231;23;20016;-65
2021/08/26 05:47:38;;;;;;;0.10;0.10;;;;;;;23.17;42.66;99689.97;6242874;23;20104;-65
2021/08/26 05:50:05;;;;;;;0.10;0.10;;;;;;;23.15;42.77;99693.78;6241965;23;20407;-63
2021/08/26 05:52:31;;;;;;;0.10;0.10;;;;;;;23.14;42.85;99694.78;6241607;23;20023;-68
2021/08/26 05:54:57;;;;;;;0.20;0.20;;;;;;;23.17;42.68;99699.78;6215192;23;20020;-66
2021/08/26 05:57:23;;;;;;;0.10;0.10;;;;;;;23.18;42.90;99696.13;6241890;23;20024;-64
2021/08/26 05:59:50;;;;;;;0.10;0.10;;;;;;;23.19;43.22;99695.13;6241703;23;20020;-66
2021/08/26 06:02:16;;;;;;;0.10;0.10;;;;;;;23.24;42.66;99682.13;6241903;23;20012;-64
2021/08/26 06:04:42;;;;;;;0.10;0.10;;;;;;;23.31;42.79;99693.78;6241996;23;20016;-66
2021/08/26 06:07:08;;;;;;;0.10;0.10;;;;;;;23.32;42.75;99688.28;6242367;23;20020;-67
2021/08/26 06:09:34;;;;;;;0.10;0.10;;;;;;;23.34;42.64;99702.25;6241547;23;20074;-64
2021/08/26 06:12:00;;;;;;;0.10;0.10;;;;;;;23.36;42.71;99696.78;6241476;23;20475;-65
2021/08/26 06:14:56;;;;;;;0.10;0.10;;;;;;;23.40;42.54;99700.78;6242013;23;20097;-66
2021/08/26 06:17:23;;;;;;;0.20;0.20;;;;;;;23.56;42.20;99708.72;6241922;23;20027;-64
2021/08/26 06:19:50;;;;;;;0.10;0.10;;;;;;;23.65;42.11;99704.22;6242259;23;20440;-66
2021/08/26 06:22:16;;;;;;;0.10;0.10;;;;;;;23.72;41.98;99716.69;6214731;23;20027;-64
2021/08/26 06:24:46;;;;;;;0.20;0.20;;;;;;;23.92;41.40;99724.31;6216190;23;20455;-65
2021/08/26 06:27:12;;;;;;;0.10;0.10;;;;;;;24.04;41.04;99723.75;6215086;23;20039;-62
2021/08/26 06:29:38;;;;;;;0.28;0.28;;;;;;;25.19;38.64;99696.16;6215145;23;20430;-63
2021/08/26 06:32:04;;;;;;;0.20;0.20;;;;;;;26.37;36.35;99689.78;6241660;23;20019;-63
2021/08/26 06:34:44;;;;;;;0.10;0.10;;;;;;;26.11;36.58;99689.47;6241855;23;20026;-64
2021/08/26 06:37:10;;;;;;;0.10;0.10;;;;;;;25.50;38.02;99688.84;6214978;23;20020;-61
2021/08/26 06:39:36;;;;;;;0.10;0.10;;;;;;;25.11;38.64;99702.41;6241622;23;20412;-66
2021/08/26 06:42:02;;;;;;;0.32;0.32;;;;;;;25.70;37.96;99706.00;6214443;23;20020;-66
2021/08/26 06:44:28;;;;;;;0.20;0.20;;;;;;;26.23;36.48;99706.72;6242099;23;20103;-64
2021/08/26 06:46:54;;;;;;;0.10;0.10;;;;;;;26.47;36.22;99693.00;6241850;23;20090;-65
2021/08/26 06:49:22;;;;;;;0.10;0.10;;;;;;;26.29;36.39;99711.31;6216496;23;20020;-65
2021/08/26 06:51:49;;;;;;;0.10;0.10;;;;;;;26.00;36.88;99724.72;6242578;23;20016;-65
2021/08/26 06:54:15;;;;;;;0.10;0.10;;;;;;;25.77;37.26;99728.31;6243849;23;20043;-65
2021/08/26 06:56:41;;;;;;;0.10;0.10;;;;;;;25.62;37.64;99732.81;6243959;23;20066;-66
2021/08/26 06:59:07;;;;;;;0.10;0.10;;;;;;;25.46;37.93;99735.63;6242321;23;20451;-67
2021/08/26 07:01:36;;;;;;;0.10;0.10;;;;;;;25.33;38.11;99728.25;6216949;23;20020;-65
2021/08/26 07:04:10;;;;;;;2.60;1.10;;;;;;;25.28;38.32;99737.81;6217180;23;20027;-66
2021/08/26 07:06:41;;;;;;;0.20;0.20;;;;;;;25.16;39.04;99723.25;6243607;23;20099;-65
2021/08/26 07:09:07;;;;;;;0.30;0.30;;;;;;;25.08;39.21;99725.97;6216734;23;20368;-68
2021/08/26 07:11:40;;;;;;;0.10;0.10;;;;;;;25.16;38.92;99728.59;6243871;23;20023;-64
2021/08/26 07:14:12;;;;;;;0.10;0.10;;;;;;;25.29;38.70;99726.13;6217180;23;20027;-64
2021/08/26 07:16:38;;;;;;;0.10;0.10;;;;;;;25.41;38.29;99722.00;6243547;23;20028;-66
2021/08/26 07:19:04;;;;;;;0.10;0.10;;;;;;;25.69;37.98;99741.78;6217184;23;20016;-65
2021/08/26 07:21:30;;;;;;;0.10;0.10;;;;;;;25.79;37.44;99741.50;6216705;23;20016;-68
2021/08/26 07:23:55;;;;;;;0.10;0.10;;;;;;;25.87;37.71;99744.09;6243115;23;20023;-66
2021/08/26 07:26:21;;;;;;;0.10;0.10;;;;;;;26.00;37.16;99727.38;6242932;22;20073;-66
2021/08/26 07:28:47;;;;;;;0.10;0.10;;;;;;;26.19;37.05;99732.19;6242775;23;20024;-68
2021/08/26 07:31:13;;;;;;;0.10;0.10;;;;;;;26.20;36.97;99739.22;6242732;23;20059;-64
2021/08/26 07:33:40;;;;;;;0.10;0.10;;;;;;;26.18;37.08;99746.59;6242669;23;20020;-64
2021/08/26 07:36:07;;;;;;;0.20;0.20;;;;;;;26.56;36.47;99740.06;6216042;23;20020;-65
2021/08/26 07:38:34;;;;;;;0.10;0.10;;;;;;;26.98;35.58;99747.31;6216614;23;20016;-65
2021/08/26 07:41:00;;;;;;;0.20;0.20;;;;;;;27.40;34.83;99741.06;6242742;23;20032;-67
2021/08/26 07:43:30;;;;;;;0.10;0.10;;;;;;;27.70;34.28;99750.59;6190693;23;20020;-67
2021/08/26 07:45:57;;;;;;;0.20;0.20;;;;;;;27.55;34.64;99759.78;6242319;23;20020;-67
2021/08/26 07:48:23;;;;;;;0.20;0.20;;;;;;;27.25;35.10;99773.34;6242867;23;20066;-65
2021/08/26 07:50:49;;;;;;;0.10;0.10;;;;;;;26.93;35.82;99755.91;6242559;23;20520;-64
2021/08/26 07:53:16;;;;;;;0.30;0.30;;;;;;;27.08;35.86;99758.53;6243550;23;20412;-62
2021/08/26 07:55:43;;;;;;;0.20;0.20;;;;;;;27.43;35.19;99771.03;6191584;23;20015;-67
2021/08/26 07:58:12;;;;;;;0.10;0.10;;;;;;;27.46;35.01;99769.81;6217069;23;20020;-66
2021/08/26 08:00:38;;;;;;;0.10;0.10;;;;;;;27.31;35.13;99771.72;6242900;23;20439;-67
2021/08/26 08:03:11;;;;;;;0.10;0.10;;;;;;;27.17;35.59;99764.59;6242830;23;20020;-68
2021/08/26 08:05:54;;;;;;;0.57;0.57;;;;;;;26.76;36.41;99773.25;6218300;23;20027;-66
2021/08/26 08:08:23;;;;;;;0.20;0.20;;;;;;;26.35;36.99;99775.66;6216705;23;20079;-64
2021/08/26 08:10:49;;;;;;;0.25;0.25;;;;;;;26.10;37.37;99776.09;6242698;23;20023;-63
2021/08/26 08:13:15;;;;;;;0.35;0.35;;;;;;;25.96;37.75;99787.63;6242421;23;20016;-64
2021/08/26 08:15:44;;;;;;;0.13;0.13;;;;;;;25.98;37.44;99788.31;6242511;23;20023;-67
2021/08/26 08:18:12;;;;;;;0.15;0.15;;;;;;;25.97;37.67;99770.56;6166738;23;20048;-65
2021/08/26 08:20:39;;;;;;;0.10;0.10;;;;;;;25.92;37.92;99771.13;6190538;23;20077;-66
2021/08/26 08:23:06;;;;;;;0.10;0.10;;;;;;;25.88;38.37;99773.34;6215425;23;20020;-65
2021/08/26 08:25:32;;;;;;;0.10;0.10;;;;;;;25.81;38.50;99775.09;6215042;22;20020;-66
2021/08/26 08:27:58;;;;;;;0.10;0.10;;;;;;;25.84;38.55;99769.38;6241808;23;20065;-66
2021/08/26 08:30:26;;;;;;;0.10;0.10;;;;;;;25.96;38.20;99779.59;6242164;23;20016;-67
2021/08/26 08:32:54;;;;;;;0.10;0.10;;;;;;;26.08;37.81;99762.09;6241899;23;20050;-66
2021/08/26 08:35:22;;;;;;;0.10;0.10;;;;;;;26.22;37.80;99780.00;6215220;23;20403;-67
2021/08/26 08:37:49;;;;;;;0.10;0.10;;;;;;;26.29;37.30;99772.88;6241933;23;20059;-66
2021/08/26 08:40:15;;;;;;;0.10;0.10;;;;;;;26.29;37.62;99787.13;6215068;23;20478;-66
2021/08/26 08:42:43;;;;;;;0.10;0.10;;;;;;;26.23;37.63;99789.69;6242492;23;20098;-65
2021/08/26 08:45:09;;;;;;;0.10;0.10;;;;;;;26.15;37.61;99784.41;6241681;23;20016;-66
2021/08/26 08:47:36;;;;;;;0.22;0.22;;;;;;;26.11;37.72;99775.91;6241710;23;20082;-65
2021/08/26 08:50:02;;;;;;;0.10;0.10;;;;;;;26.04;37.92;99771.50;6241533;23;20044;-64
2021/08/26 08:52:28;;;;;;;0.10;0.10;;;;;;;25.97;38.10;99790.16;6209820;23;20047;-66
2021/08/26 08:54:54;;;;;;;0.10;0.10;;;;;;;25.89;38.24;99775.00;6209790;23;20044;-67
2021/08/26 08:57:20;;;;;;;0.10;0.10;;;;;;;25.86;38.58;99778.06;6209963;23;20023;-65
2021/08/26 09:00:00;;;;;;;0.10;0.10;;;;;;;25.88;38.62;99780.56;6211382;23;20471;-67
2021/08/26 09:02:27;;;;;;;0.10;0.10;;;;;;;25.82;38.45;99773.25;6211258;23;20017;-65
2021/08/26 09:04:57;;;;;;;0.57;0.52;;;;;;;25.92;38.49;99788.00;6209991;23;20016;-65
2021/08/26 09:07:30;;;;;;;0.10;0.10;;;;;;;25.91;38.40;99781.00;6211353;23;20167;-65
2021/08/26 09:09:56;;;;;;;0.10;0.10;;;;;;;25.78;38.87;99782.66;6210654;23;20024;-67
2021/08/26 09:12:41;;;;;;;0.10;0.10;;;;;;;25.59;39.50;99778.66;6211413;23;20028;-65
2021/08/26 09:15:30;;;;;;;0.10;0.10;;;;;;;25.40;39.69;99790.66;6211270;23;20456;-66
2021/08/26 09:18:15;;;;;;;0.10;0.10;;;;;;;25.20;40.20;99794.00;6211065;23;20020;-68
2021/08/26 09:20:55;;;;;;;0.22;0.22;;;;;;;25.11;40.45;99795.09;6184999;23;20040;-65
2021/08/26 09:23:28;;;;;;;0.20;0.20;;;;;;;25.08;40.70;99795.44;6211480;23;20345;-65
2021/08/26 09:25:55;;;;;;;0.10;0.10;;;;;;;25.07;40.80;99788.44;6211234;23;20040;-66
2021/08/26 09:28:32;;;;;;;0.10;0.10;;;;;;;25.09;40.69;99792.63;6211159;23;20024;-65
2021/08/26 09:31:10;;;;;;;0.10;0.10;;;;;;;25.10;41.01;99793.41;6211641;23;20062;-66
2021/08/26 09:34:00;;;;;;;0.10;0.10;;;;;;;25.05;41.33;99793.97;6211355;23;20027;-67
2021/08/26 09:36:34;;;;;;;0.65;0.65;;;;;;;25.01;41.31;99805.19;6203888;23;20036;-66
2021/08/26 09:39:16;;;;;;;0.10;0.10;;;;;;;24.96;41.54;99802.22;6210046;23;20063;-67
2021/08/26 09:41:49;;;;;;;0.10;0.10;;;;;;;24.90;41.95;99793.09;6211189;23;20127;-66
2021/08/26 09:44:19;;;;;;;0.10;0.10;;;;;;;24.93;42.49;99786.56;6210809;23;20023;-66
2021/08/26 09:46:47;;;;;;;;;;;;;;;25.08;42.44;99801.63;6211574;23;20040;-65
2021/08/26 09:49:14;;;;;;;0.17;0.17;;;;;;;25.21;41.69;99793.00;6210896;23;19962;-66
2021/08/26 09:51:42;;;;;;;0.20;0.20;;;;;;;25.41;41.14;99810.22;6214870;23;20027;-66
2021/08/26 09:54:27;;;;;;;0.10;0.10;;;;;;;25.51;41.00;99813.50;6241259;23;20016;-67
2021/08/26 09:56:53;;;;;;;0.20;0.20;;;;;;;25.52;41.08;99793.78;6241351;23;20098;-66
2021/08/26 09:59:19;;;;;;;0.10;0.10;;;;;;;25.56;41.03;99804.94;6240979;23;20024;-66
2021/08/26 10:01:45;;;;;;;0.10;0.10;;;;;;;25.47;40.93;99797.97;6241155;23;20016;-66
2021/08/26 10:04:29;;;;;;;0.47;0.47;;;;;;;25.50;41.53;99795.78;6189527;23;20364;-66
2021/08/26 10:06:55;;;;;;;0.20;0.20;;;;;;;25.52;41.78;99812.50;6214498;23;20443;-66
2021/08/26 10:09:22;;;;;;;0.10;0.10;;;;;;;25.51;41.61;99808.16;6241001;23;20024;-66
2021/08/26 10:11:48;;;;;;;0.20;0.20;;;;;;;25.44;41.74;99798.34;6241089;23;20150;-66
2021/08/26 10:14:14;;;;;;;0.10;0.10;;;;;;;25.32;42.00;99800.63;6189217;23;20091;-66
2021/08/26 10:16:40;;;;;;;0.10;0.10;;;;;;;25.23;42.43;99804.34;6241236;23;20020;-66
2021/08/26 10:19:07;;;;;;;0.17;0.17;;;;;;;25.16;42.34;99801.56;6241024;23;20047;-66
2021/08/26 10:21:33;;;;;;;0.10;0.10;;;;;;;25.17;42.48;99789.03;6242515;23;20046;-67
2021/08/26 10:23:59;;;;;;;0.10;0.10;;;;;;;25.30;42.60;99792.75;6243179;23;20019;-66
2021/08/26 10:26:25;;;;;;;0.10;0.10;;;;;;;25.49;42.19;99802.13;6191378;23;20018;-67
2021/08/26 10:28:51;;;;;;;0.10;0.10;;;;;;;25.75;41.55;99794.53;6242781;23;20023;-66
2021/08/26 10:31:31;;;;;;;0.10;0.10;;;;;;;26.05;41.04;99810.63;6190766;23;20428;-66
2021/08/26 10:34:10;;;;;;;0.82;0.47;;;;;;;26.08;41.02;99812.94;6243100;23;20452;-66
2021/08/26 10:36:46;;;;;;;0.10;0.10;;;;;;;26.09;41.36;99822.63;6242887;23;20015;-66
2021/08/26 10:39:31;;;;;;;0.10;0.10;;;;;;;26.00;41.18;99821.06;6242730;23;20386;-65
2021/08/26 10:42:22;;;;;;;0.30;0.30;;;;;;;26.04;40.79;99809.81;6243114;23;20012;-65
2021/08/26 10:45:19;;;;;;;0.10;0.10;;;;;;;26.17;40.81;99806.50;6242768;23;20022;-65
2021/08/26 10:47:48;;;;;;;0.10;0.10;;;;;;;26.17;41.30;99803.84;6243228;23;20455;-64
2021/08/26 10:50:19;;;;;;;0.10;0.10;;;;;;;25.95;41.70;99788.69;6242798;23;20024;-63
2021/08/26 10:52:53;;;;;;;0.10;0.10;;;;;;;25.87;42.28;99797.63;6242721;23;20069;-63
2021/08/26 10:55:33;;;;;;;0.10;0.10;;;;;;;25.75;42.59;99793.72;6242655;23;20016;-64
2021/08/26 10:58:25;;;;;;;0.20;0.20;;;;;;;25.57;42.58;99791.38;6243384;23;20051;-64
2021/08/26 11:00:59;;;;;;;0.10;0.10;;;;;;;25.36;43.06;99810.75;6242579;23;20023;-64
2021/08/26 11:03:34;;;;;;;0.10;0.10;;;;;;;25.12;43.68;99807.47;6216007;23;20078;-64
2021/08/26 11:06:12;;;;;;;0.15;0.15;;;;;;;24.97;44.22;99817.25;6215856;23;20066;-64
2021/08/26 11:08:39;;;;;;;0.55;0.45;;;;;;;24.84;44.40;99815.97;6242455;23;20460;-64
2021/08/26 11:11:27;;;;;;;0.10;0.10;;;;;;;24.76;44.81;99816.00;6241966;23;20087;-64
2021/08/26 11:14:01;;;;;;;0.10;0.10;;;;;;;24.69;44.88;99814.22;6242692;23;20020;-63
2021/08/26 11:16:27;;;;;;;0.38;0.38;;;;;;;24.64;45.24;99805.91;6215730;23;20016;-63
2021/08/26 11:19:17;;;;;;;0.10;0.10;;;;;;;24.56;45.32;99790.75;6242688;23;20078;-63
2021/08/26 11:24:12;;;;;;;0.10;0.10;;;;;;;24.64;45.83;99812.06;6242768;23;20047;-65
2021/08/26 11:27:00;;;;;;;0.40;0.30;;;;;;;24.60;45.56;99802.75;6242424;22;20020;-65
2021/08/26 11:29:29;;;;;;;0.10;0.10;;;;;;;24.60;46.32;99808.09;6242198;23;20466;-64
2021/08/26 11:31:55;;;;;;;0.10;0.10;;;;;;;24.57;46.58;99811.13;6242336;23;20016;-65
2021/08/26 11:34:25;;;;;;;0.10;0.10;;;;;;;24.51;46.61;99819.78;6242400;23;20081;-64
2021/08/26 11:36:58;;;;;;;0.15;0.15;;;;;;;24.42;46.47;99802.16;6242640;23;20538;-64
2021/08/26 11:39:24;;;;;;;0.10;0.10;;;;;;;24.48;46.76;99829.97;6242357;23;20110;-64
2021/08/26 11:41:50;;;;;;;0.10;0.10;;;;;;;24.40;46.52;99827.38;6242851;23;20455;-64
2021/08/26 11:44:17;;;;;;;0.10;0.10;;;;;;;24.32;47.15;99826.38;6216009;23;20478;-65
2021/08/26 11:46:46;;;;;;;0.10;0.10;;;;;;;24.29;47.55;99826.75;6243443;23;20016;-64
2021/08/26 11:49:12;;;;;;;0.10;0.10;;;;;;;24.30;48.09;99806.22;6215588;23;20374;-65
2021/08/26 11:51:38;;;;;;;0.00;0.00;;;;;;;24.26;48.29;99808.41;6242211;23;20020;-65
2021/08/26 11:54:15;;;;;;;0.10;0.10;;;;;;;24.23;48.36;99803.41;6242522;23;20023;-64
2021/08/26 11:56:52;;;;;;;0.10;0.10;;;;;;;24.18;48.79;99813.75;6242503;23;20015;-64
2021/08/26 11:59:41;;;;;;;0.10;0.10;;;;;;;24.06;48.78;99808.94;6242475;23;20070;-65
2021/08/26 12:02:27;;;;;;;0.10;0.10;;;;;;;24.06;49.15;99824.94;6242359;23;20020;-65
2021/08/26 12:04:54;;;;;;;0.00;0.00;;;;;;;24.00;49.33;99828.28;6242465;23;20074;-64
2021/08/26 12:07:33;;;;;;;0.10;0.10;;;;;;;23.91;49.59;99822.16;6242011;23;20086;-65
2021/08/26 12:10:16;;;;;;;0.10;0.10;;;;;;;23.75;49.35;99808.84;6242487;23;20028;-64
2021/08/26 12:13:05;;;;;;;0.10;0.10;;;;;;;23.81;49.72;99827.69;6242716;23;20020;-64
2021/08/26 12:15:35;;;;;;;0.10;0.10;;;;;;;23.77;49.41;99842.34;6242371;23;20027;-64
2021/08/26 12:18:02;;;;;;;;;;;;;;;23.75;49.14;99832.84;6242521;23;20022;-64
2021/08/26 12:20:30;;;;;;;0.10;0.10;;;;;;;23.69;50.12;99833.53;6241943;23;19919;-64